sensor_id;sensor_type;location;lat;lon;timestamp;temperature;humidity
12632;DHT22;6381;45.748;12.106;2023-03-01T00:00:35;6.00;77.60
12632;DHT22;6381;45.748;12.106;2023-03-01T00:03:04;6.00;77.40
12632;DHT22;6381;45.748;12.106;2023-03-01T00:05:33;6.10;77.80
12632;DHT22;6381;45.748;12.106;2023-03-01T00:10:49;6.30;76.10
12632;DHT22;6381;45.748;12.106;2023-03-01T00:13:28;6.10;74.40
12632;DHT22;6381;45.748;12.106;2023-03-01T00:16:17;6.10;74.50
12632;DHT22;6381;45.748;12.106;2023-03-01T00:18:47;6.00;75.10
12632;DHT22;6381;45.748;12.106;2023-03-01T00:21:16;5.90;75.00
12632;DHT22;6381;45.748;12.106;2023-03-01T00:23:45;5.90;74.70
12632;DHT22;6381;45.748;12.106;2023-03-01T00:26:17;5.80;75.30
12632;DHT22;6381;45.748;12.106;2023-03-01T00:32:11;5.50;76.90
12632;DHT22;6381;45.748;12.106;2023-03-01T00:34:40;5.80;77.00
12632;DHT22;6381;45.748;12.106;2023-03-01T00:43:01;5.90;76.30
12632;DHT22;6381;45.748;12.106;2023-03-01T00:45:30;5.80;77.00
12632;DHT22;6381;45.748;12.106;2023-03-01T00:48:20;5.90;75.40
12632;DHT22;6381;45.748;12.106;2023-03-01T00:50:49;5.90;75.80
12632;DHT22;6381;45.748;12.106;2023-03-01T00:53:18;5.80;75.80
12632;DHT22;6381;45.748;12.106;2023-03-01T00:55:47;6.00;77.70
12632;DHT22;6381;45.748;12.106;2023-03-01T00:58:16;5.90;76.40
12632;DHT22;6381;45.748;12.106;2023-03-01T01:00:45;5.70;76.50
12632;DHT22;6381;45.748;12.106;2023-03-01T01:03:35;5.80;77.30
12632;DHT22;6381;45.748;12.106;2023-03-01T01:06:04;5.80;77.40
12632;DHT22;6381;45.748;12.106;2023-03-01T01:08:36;5.90;76.90
12632;DHT22;6381;45.748;12.106;2023-03-01T01:11:05;5.70;77.20
12632;DHT22;6381;45.748;12.106;2023-03-01T01:13:39;5.80;78.70
12632;DHT22;6381;45.748;12.106;2023-03-01T01:16:28;5.90;77.20
12632;DHT22;6381;45.748;12.106;2023-03-01T01:18:59;5.90;76.40
12632;DHT22;6381;45.748;12.106;2023-03-01T01:21:28;6.10;76.40
12632;DHT22;6381;45.748;12.106;2023-03-01T01:23:57;5.80;76.40
12632;DHT22;6381;45.748;12.106;2023-03-01T01:26:28;5.90;77.00
12632;DHT22;6381;45.748;12.106;2023-03-01T01:28:58;5.90;76.30
12632;DHT22;6381;45.748;12.106;2023-03-01T01:31:45;5.80;76.20
12632;DHT22;6381;45.748;12.106;2023-03-01T01:34:17;5.80;77.30
12632;DHT22;6381;45.748;12.106;2023-03-01T01:36:48;5.80;77.60
12632;DHT22;6381;45.748;12.106;2023-03-01T01:39:18;5.70;75.10
12632;DHT22;6381;45.748;12.106;2023-03-01T01:41:48;5.60;78.30
12632;DHT22;6381;45.748;12.106;2023-03-01T01:44:19;5.70;78.60
12632;DHT22;6381;45.748;12.106;2023-03-01T01:46:51;5.60;79.10
12632;DHT22;6381;45.748;12.106;2023-03-01T01:49:31;5.50;78.30
12632;DHT22;6381;45.748;12.106;2023-03-01T01:52:07;5.60;78.30
12632;DHT22;6381;45.748;12.106;2023-03-01T01:57:18;5.70;79.40
12632;DHT22;6381;45.748;12.106;2023-03-01T02:02:20;5.70;79.00
12632;DHT22;6381;45.748;12.106;2023-03-01T02:05:14;5.80;78.00
12632;DHT22;6381;45.748;12.106;2023-03-01T02:07:46;5.90;77.90
12632;DHT22;6381;45.748;12.106;2023-03-01T02:10:20;5.70;77.80
12632;DHT22;6381;45.748;12.106;2023-03-01T02:12:50;5.80;78.20
12632;DHT22;6381;45.748;12.106;2023-03-01T02:18:27;5.80;78.00
12632;DHT22;6381;45.748;12.106;2023-03-01T02:21:09;5.90;78.80
12632;DHT22;6381;45.748;12.106;2023-03-01T02:23:42;5.90;79.10
12632;DHT22;6381;45.748;12.106;2023-03-01T02:26:18;5.90;79.10
12632;DHT22;6381;45.748;12.106;2023-03-01T02:28:49;5.90;80.40
12632;DHT22;6381;45.748;12.106;2023-03-01T02:39:27;6.20;76.60
12632;DHT22;6381;45.748;12.106;2023-03-01T02:42:20;6.30;76.30
12632;DHT22;6381;45.748;12.106;2023-03-01T02:53:03;6.10;76.30
12632;DHT22;6381;45.748;12.106;2023-03-01T02:55:37;6.10;76.10
12632;DHT22;6381;45.748;12.106;2023-03-01T02:58:07;6.20;77.30
12632;DHT22;6381;45.748;12.106;2023-03-01T03:01:13;6.20;77.50
12632;DHT22;6381;45.748;12.106;2023-03-01T03:03:44;6.10;77.70
12632;DHT22;6381;45.748;12.106;2023-03-01T03:06:13;6.10;77.70
12632;DHT22;6381;45.748;12.106;2023-03-01T03:08:43;6.10;77.80
12632;DHT22;6381;45.748;12.106;2023-03-01T03:11:31;6.20;79.60
12632;DHT22;6381;45.748;12.106;2023-03-01T03:14:17;6.10;75.80
12632;DHT22;6381;45.748;12.106;2023-03-01T03:17:06;5.90;77.60
12632;DHT22;6381;45.748;12.106;2023-03-01T03:19:54;6.20;76.50
12632;DHT22;6381;45.748;12.106;2023-03-01T03:27:42;5.90;75.50
12632;DHT22;6381;45.748;12.106;2023-03-01T03:33:02;6.60;78.30
12632;DHT22;6381;45.748;12.106;2023-03-01T03:58:51;5.90;78.20
12632;DHT22;6381;45.748;12.106;2023-03-01T04:01:20;5.90;77.80
12632;DHT22;6381;45.748;12.106;2023-03-01T04:03:51;6.00;77.50
12632;DHT22;6381;45.748;12.106;2023-03-01T04:06:22;6.10;77.60
12632;DHT22;6381;45.748;12.106;2023-03-01T04:11:39;6.00;77.40
12632;DHT22;6381;45.748;12.106;2023-03-01T04:14:08;5.90;78.10
12632;DHT22;6381;45.748;12.106;2023-03-01T04:16:38;5.90;78.70
12632;DHT22;6381;45.748;12.106;2023-03-01T04:21:56;6.00;78.90
12632;DHT22;6381;45.748;12.106;2023-03-01T04:24:25;6.00;78.50
12632;DHT22;6381;45.748;12.106;2023-03-01T04:29:24;5.80;79.10
12632;DHT22;6381;45.748;12.106;2023-03-01T04:31:53;5.90;78.30
12632;DHT22;6381;45.748;12.106;2023-03-01T04:34:24;5.90;77.80
12632;DHT22;6381;45.748;12.106;2023-03-01T04:36:54;5.90;78.00
12632;DHT22;6381;45.748;12.106;2023-03-01T04:39:23;5.90;78.60
12632;DHT22;6381;45.748;12.106;2023-03-01T04:42:09;5.90;78.70
12632;DHT22;6381;45.748;12.106;2023-03-01T04:44:38;5.80;79.40
12632;DHT22;6381;45.748;12.106;2023-03-01T04:49:55;6.00;80.40
12632;DHT22;6381;45.748;12.106;2023-03-01T05:41:27;6.90;78.70
12632;DHT22;6381;45.748;12.106;2023-03-01T05:46:44;6.20;77.50
12632;DHT22;6381;45.748;12.106;2023-03-01T05:49:14;6.20;77.80
12632;DHT22;6381;45.748;12.106;2023-03-01T06:01:43;6.30;75.80
12632;DHT22;6381;45.748;12.106;2023-03-01T06:04:12;6.40;75.40
12632;DHT22;6381;45.748;12.106;2023-03-01T06:06:41;6.50;75.40
12632;DHT22;6381;45.748;12.106;2023-03-01T06:11:58;6.60;76.50
12632;DHT22;6381;45.748;12.106;2023-03-01T06:19:26;6.40;77.10
12632;DHT22;6381;45.748;12.106;2023-03-01T06:22:13;6.50;73.60
12632;DHT22;6381;45.748;12.106;2023-03-01T06:24:42;6.70;73.80
12632;DHT22;6381;45.748;12.106;2023-03-01T06:27:13;6.70;73.50
12632;DHT22;6381;45.748;12.106;2023-03-01T06:29:42;6.70;73.20
12632;DHT22;6381;45.748;12.106;2023-03-01T06:32:29;6.70;73.00
12632;DHT22;6381;45.748;12.106;2023-03-01T06:35:17;6.70;73.00
12632;DHT22;6381;45.748;12.106;2023-03-01T06:37:48;6.80;73.20
12632;DHT22;6381;45.748;12.106;2023-03-01T06:40:17;6.90;73.40
12632;DHT22;6381;45.748;12.106;2023-03-01T06:42:50;7.00;73.40
12632;DHT22;6381;45.748;12.106;2023-03-01T06:45:37;6.90;73.00
12632;DHT22;6381;45.748;12.106;2023-03-01T06:48:07;7.00;73.20
12632;DHT22;6381;45.748;12.106;2023-03-01T06:50:37;7.00;73.10
12632;DHT22;6381;45.748;12.106;2023-03-01T06:53:24;7.00;73.40
12632;DHT22;6381;45.748;12.106;2023-03-01T06:55:57;7.20;72.80
12632;DHT22;6381;45.748;12.106;2023-03-01T06:58:29;7.40;72.60
12632;DHT22;6381;45.748;12.106;2023-03-01T07:00:58;7.40;72.20
12632;DHT22;6381;45.748;12.106;2023-03-01T07:03:27;7.40;73.10
12632;DHT22;6381;45.748;12.106;2023-03-01T07:05:56;7.40;72.60
12632;DHT22;6381;45.748;12.106;2023-03-01T07:08:26;7.30;72.80
12632;DHT22;6381;45.748;12.106;2023-03-01T07:10:56;7.40;72.90
12632;DHT22;6381;45.748;12.106;2023-03-01T07:13:45;7.30;73.20
12632;DHT22;6381;45.748;12.106;2023-03-01T07:16:15;7.50;73.70
12632;DHT22;6381;45.748;12.106;2023-03-01T07:18:44;7.50;73.20
12632;DHT22;6381;45.748;12.106;2023-03-01T07:21:14;7.30;72.40
12632;DHT22;6381;45.748;12.106;2023-03-01T07:23:44;7.50;74.00
12632;DHT22;6381;45.748;12.106;2023-03-01T07:26:16;7.70;72.70
12632;DHT22;6381;45.748;12.106;2023-03-01T07:28:47;7.60;74.30
12632;DHT22;6381;45.748;12.106;2023-03-01T07:31:16;7.60;74.40
12632;DHT22;6381;45.748;12.106;2023-03-01T07:33:45;7.70;74.20
12632;DHT22;6381;45.748;12.106;2023-03-01T07:36:15;7.90;75.20
12632;DHT22;6381;45.748;12.106;2023-03-01T07:38:45;7.90;73.70
12632;DHT22;6381;45.748;12.106;2023-03-01T07:41:33;7.90;72.90
12632;DHT22;6381;45.748;12.106;2023-03-01T07:44:04;8.00;73.70
12632;DHT22;6381;45.748;12.106;2023-03-01T07:46:51;8.10;75.00
12632;DHT22;6381;45.748;12.106;2023-03-01T07:49:24;8.20;76.00
12632;DHT22;6381;45.748;12.106;2023-03-01T07:51:55;8.10;72.40
12632;DHT22;6381;45.748;12.106;2023-03-01T07:57:11;8.20;71.60
12632;DHT22;6381;45.748;12.106;2023-03-01T07:59:42;8.40;72.00
12632;DHT22;6381;45.748;12.106;2023-03-01T08:02:12;8.60;71.50
12632;DHT22;6381;45.748;12.106;2023-03-01T08:04:42;8.80;71.90
12632;DHT22;6381;45.748;12.106;2023-03-01T08:12:28;9.10;73.00
12632;DHT22;6381;45.748;12.106;2023-03-01T08:17:49;9.10;71.20
12632;DHT22;6381;45.748;12.106;2023-03-01T08:22:47;9.10;70.20
12632;DHT22;6381;45.748;12.106;2023-03-01T08:30:17;9.30;76.90
12632;DHT22;6381;45.748;12.106;2023-03-01T08:32:46;9.30;72.60
12632;DHT22;6381;45.748;12.106;2023-03-01T08:37:45;9.40;72.30
12632;DHT22;6381;45.748;12.106;2023-03-01T08:43:02;9.30;75.40
12632;DHT22;6381;45.748;12.106;2023-03-01T08:48:02;9.30;74.20
12632;DHT22;6381;45.748;12.106;2023-03-01T08:50:31;9.60;75.20
12632;DHT22;6381;45.748;12.106;2023-03-01T09:01:09;9.40;73.20
12632;DHT22;6381;45.748;12.106;2023-03-01T09:03:39;9.40;74.60
12632;DHT22;6381;45.748;12.106;2023-03-01T09:06:26;9.40;73.00
12632;DHT22;6381;45.748;12.106;2023-03-01T09:09:31;9.80;74.20
12632;DHT22;6381;45.748;12.106;2023-03-01T09:12:00;9.90;73.90
12632;DHT22;6381;45.748;12.106;2023-03-01T09:17:00;11.40;70.80
12632;DHT22;6381;45.748;12.106;2023-03-01T09:19:30;11.70;65.80
12632;DHT22;6381;45.748;12.106;2023-03-01T09:21:59;11.50;65.90
12632;DHT22;6381;45.748;12.106;2023-03-01T09:24:28;11.40;65.20
12632;DHT22;6381;45.748;12.106;2023-03-01T09:26:57;11.50;65.60
12632;DHT22;6381;45.748;12.106;2023-03-01T09:29:27;11.60;67.50
12632;DHT22;6381;45.748;12.106;2023-03-01T09:31:56;11.60;66.80
12632;DHT22;6381;45.748;12.106;2023-03-01T09:34:27;11.20;65.80
12632;DHT22;6381;45.748;12.106;2023-03-01T09:36:57;11.80;67.10
12632;DHT22;6381;45.748;12.106;2023-03-01T09:39:27;11.90;65.30
12632;DHT22;6381;45.748;12.106;2023-03-01T09:42:00;11.90;66.00
12632;DHT22;6381;45.748;12.106;2023-03-01T09:44:35;11.80;67.50
12632;DHT22;6381;45.748;12.106;2023-03-01T09:47:11;11.70;65.50
12632;DHT22;6381;45.748;12.106;2023-03-01T09:49:43;11.80;64.30
12632;DHT22;6381;45.748;12.106;2023-03-01T09:52:23;12.00;65.20
12632;DHT22;6381;45.748;12.106;2023-03-01T09:54:55;12.40;64.70
12632;DHT22;6381;45.748;12.106;2023-03-01T09:57:47;12.20;66.20
12632;DHT22;6381;45.748;12.106;2023-03-01T10:00:39;11.90;65.40
12632;DHT22;6381;45.748;12.106;2023-03-01T10:03:16;11.80;67.90
12632;DHT22;6381;45.748;12.106;2023-03-01T10:05:55;11.80;65.30
12632;DHT22;6381;45.748;12.106;2023-03-01T10:08:38;11.90;69.60
12632;DHT22;6381;45.748;12.106;2023-03-01T10:22:15;12.40;66.70
12632;DHT22;6381;45.748;12.106;2023-03-01T10:29:53;12.30;67.90
12632;DHT22;6381;45.748;12.106;2023-03-01T10:32:42;12.20;66.70
12632;DHT22;6381;45.748;12.106;2023-03-01T10:35:20;12.20;66.50
12632;DHT22;6381;45.748;12.106;2023-03-01T10:38:04;12.30;66.70
12632;DHT22;6381;45.748;12.106;2023-03-01T10:40:34;12.20;67.10
12632;DHT22;6381;45.748;12.106;2023-03-01T10:45:35;12.20;67.90
12632;DHT22;6381;45.748;12.106;2023-03-01T10:48:14;12.10;66.70
12632;DHT22;6381;45.748;12.106;2023-03-01T10:53:23;11.80;68.30
12632;DHT22;6381;45.748;12.106;2023-03-01T10:55:59;11.70;65.20
12632;DHT22;6381;45.748;12.106;2023-03-01T10:58:30;11.60;65.30
12632;DHT22;6381;45.748;12.106;2023-03-01T11:01:01;11.50;66.00
12632;DHT22;6381;45.748;12.106;2023-03-01T11:03:31;11.40;67.20
12632;DHT22;6381;45.748;12.106;2023-03-01T11:06:04;11.40;68.50
12632;DHT22;6381;45.748;12.106;2023-03-01T11:08:54;11.30;67.70
12632;DHT22;6381;45.748;12.106;2023-03-01T11:11:40;11.20;67.70
12632;DHT22;6381;45.748;12.106;2023-03-01T11:19:33;11.30;67.20
12632;DHT22;6381;45.748;12.106;2023-03-01T11:22:05;11.30;66.50
12632;DHT22;6381;45.748;12.106;2023-03-01T11:24:43;11.30;66.00
12632;DHT22;6381;45.748;12.106;2023-03-01T11:35:13;11.10;67.00
12632;DHT22;6381;45.748;12.106;2023-03-01T11:37:53;11.00;63.70
12632;DHT22;6381;45.748;12.106;2023-03-01T11:40:29;11.20;64.00
12632;DHT22;6381;45.748;12.106;2023-03-01T11:43:24;11.00;63.50
12632;DHT22;6381;45.748;12.106;2023-03-01T11:49:05;10.90;66.90
12632;DHT22;6381;45.748;12.106;2023-03-01T11:51:45;11.00;65.40
12632;DHT22;6381;45.748;12.106;2023-03-01T11:54:47;10.90;65.10
12632;DHT22;6381;45.748;12.106;2023-03-01T11:57:43;10.80;64.90
12632;DHT22;6381;45.748;12.106;2023-03-01T12:00:27;10.60;64.30
12632;DHT22;6381;45.748;12.106;2023-03-01T12:03:32;10.50;64.70
12632;DHT22;6381;45.748;12.106;2023-03-01T12:06:28;10.50;65.30
12632;DHT22;6381;45.748;12.106;2023-03-01T12:09:11;10.50;65.20
12632;DHT22;6381;45.748;12.106;2023-03-01T12:15:05;10.50;68.50
12632;DHT22;6381;45.748;12.106;2023-03-01T12:37:31;10.40;72.60
12632;DHT22;6381;45.748;12.106;2023-03-01T12:40:25;10.30;70.60
12632;DHT22;6381;45.748;12.106;2023-03-01T12:43:10;10.20;65.20
12632;DHT22;6381;45.748;12.106;2023-03-01T13:02:32;9.30;68.90
12632;DHT22;6381;45.748;12.106;2023-03-01T13:05:21;9.90;67.10
12632;DHT22;6381;45.748;12.106;2023-03-01T13:08:00;9.70;67.90
12632;DHT22;6381;45.748;12.106;2023-03-01T13:10:34;9.70;72.60
12632;DHT22;6381;45.748;12.106;2023-03-01T13:13:19;9.60;73.20
12632;DHT22;6381;45.748;12.106;2023-03-01T13:15:49;9.40;77.50
12632;DHT22;6381;45.748;12.106;2023-03-01T13:18:31;9.40;81.50
12632;DHT22;6381;45.748;12.106;2023-03-01T13:21:31;9.40;85.20
12632;DHT22;6381;45.748;12.106;2023-03-01T13:24:01;9.20;90.00
12632;DHT22;6381;45.748;12.106;2023-03-01T13:26:30;9.20;90.80
12632;DHT22;6381;45.748;12.106;2023-03-01T13:29:00;9.20;90.90
12632;DHT22;6381;45.748;12.106;2023-03-01T14:09:43;10.00;91.30
12632;DHT22;6381;45.748;12.106;2023-03-01T14:12:25;10.00;91.10
12632;DHT22;6381;45.748;12.106;2023-03-01T14:15:00;10.00;89.90
12632;DHT22;6381;45.748;12.106;2023-03-01T14:22:54;10.00;90.00
12632;DHT22;6381;45.748;12.106;2023-03-01T14:25:26;10.00;87.70
12632;DHT22;6381;45.748;12.106;2023-03-01T14:28:02;10.10;87.00
12632;DHT22;6381;45.748;12.106;2023-03-01T14:36:04;10.20;88.70
12632;DHT22;6381;45.748;12.106;2023-03-01T14:38:35;10.20;84.60
12632;DHT22;6381;45.748;12.106;2023-03-01T14:41:07;10.20;83.90
12632;DHT22;6381;45.748;12.106;2023-03-01T14:46:18;10.40;83.70
12632;DHT22;6381;45.748;12.106;2023-03-01T14:48:50;10.40;85.00
12632;DHT22;6381;45.748;12.106;2023-03-01T14:51:40;10.30;84.00
12632;DHT22;6381;45.748;12.106;2023-03-01T15:12:37;10.70;84.80
12632;DHT22;6381;45.748;12.106;2023-03-01T15:18:14;10.70;85.10
12632;DHT22;6381;45.748;12.106;2023-03-01T15:23:22;10.50;83.40
12632;DHT22;6381;45.748;12.106;2023-03-01T15:25:53;10.60;82.70
12632;DHT22;6381;45.748;12.106;2023-03-01T15:28:48;10.50;82.60
12632;DHT22;6381;45.748;12.106;2023-03-01T15:31:21;10.60;82.90
12632;DHT22;6381;45.748;12.106;2023-03-01T15:33:52;10.50;81.80
12632;DHT22;6381;45.748;12.106;2023-03-01T15:36:42;10.60;80.90
12632;DHT22;6381;45.748;12.106;2023-03-01T15:39:34;10.50;80.80
12632;DHT22;6381;45.748;12.106;2023-03-01T15:42:37;10.60;82.70
12632;DHT22;6381;45.748;12.106;2023-03-01T15:45:26;10.60;80.60
12632;DHT22;6381;45.748;12.106;2023-03-01T15:47:57;10.50;80.30
12632;DHT22;6381;45.748;12.106;2023-03-01T15:50:30;10.50;82.80
12632;DHT22;6381;45.748;12.106;2023-03-01T16:11:18;9.90;87.60
12632;DHT22;6381;45.748;12.106;2023-03-01T16:13:47;9.70;90.10
12632;DHT22;6381;45.748;12.106;2023-03-01T16:16:17;9.50;91.90
12632;DHT22;6381;45.748;12.106;2023-03-01T16:19:05;9.50;93.60
12632;DHT22;6381;45.748;12.106;2023-03-01T16:21:34;9.30;96.00
12632;DHT22;6381;45.748;12.106;2023-03-01T16:24:21;9.40;97.40
12632;DHT22;6381;45.748;12.106;2023-03-01T16:27:10;9.10;97.90
12632;DHT22;6381;45.748;12.106;2023-03-01T16:29:39;9.00;99.20
12632;DHT22;6381;45.748;12.106;2023-03-01T16:32:08;8.80;99.90
12632;DHT22;6381;45.748;12.106;2023-03-01T16:34:38;9.10;99.90
12632;DHT22;6381;45.748;12.106;2023-03-01T16:37:07;8.80;99.90
12632;DHT22;6381;45.748;12.106;2023-03-01T16:44:59;8.60;99.90
12632;DHT22;6381;45.748;12.106;2023-03-01T16:50:03;8.70;99.90
12632;DHT22;6381;45.748;12.106;2023-03-01T16:52:33;8.60;99.90
12632;DHT22;6381;45.748;12.106;2023-03-01T16:55:21;8.70;99.90
12632;DHT22;6381;45.748;12.106;2023-03-01T16:57:50;8.60;99.90
12632;DHT22;6381;45.748;12.106;2023-03-01T17:00:22;8.70;99.90
12632;DHT22;6381;45.748;12.106;2023-03-01T17:05:20;8.60;99.90
12632;DHT22;6381;45.748;12.106;2023-03-01T17:08:07;8.50;99.90
12632;DHT22;6381;45.748;12.106;2023-03-01T17:10:54;8.10;99.90
12632;DHT22;6381;45.748;12.106;2023-03-01T17:13:23;8.40;99.90
12632;DHT22;6381;45.748;12.106;2023-03-01T17:34:14;7.80;99.90
12632;DHT22;6381;45.748;12.106;2023-03-01T17:41:46;8.00;99.90
12632;DHT22;6381;45.748;12.106;2023-03-01T17:52:03;7.90;99.90
12632;DHT22;6381;45.748;12.106;2023-03-01T17:54:32;7.90;99.90
12632;DHT22;6381;45.748;12.106;2023-03-01T17:57:01;7.90;99.90
12632;DHT22;6381;45.748;12.106;2023-03-01T18:09:47;7.50;99.90
12632;DHT22;6381;45.748;12.106;2023-03-01T18:12:16;7.60;99.90
12632;DHT22;6381;45.748;12.106;2023-03-01T18:14:45;7.70;99.90
12632;DHT22;6381;45.748;12.106;2023-03-01T18:17:39;7.90;99.90
12632;DHT22;6381;45.748;12.106;2023-03-01T18:20:09;7.70;99.90
12632;DHT22;6381;45.748;12.106;2023-03-01T18:22:58;7.70;99.90
12632;DHT22;6381;45.748;12.106;2023-03-01T18:25:27;7.40;99.90
12632;DHT22;6381;45.748;12.106;2023-03-01T18:27:56;7.60;99.90
12632;DHT22;6381;45.748;12.106;2023-03-01T18:30:25;7.50;99.90
12632;DHT22;6381;45.748;12.106;2023-03-01T18:33:14;7.60;99.90
12632;DHT22;6381;45.748;12.106;2023-03-01T18:35:44;7.50;99.90
12632;DHT22;6381;45.748;12.106;2023-03-01T18:38:13;7.70;99.90
12632;DHT22;6381;45.748;12.106;2023-03-01T18:40:42;7.70;99.90
12632;DHT22;6381;45.748;12.106;2023-03-01T18:45:41;7.50;99.90
12632;DHT22;6381;45.748;12.106;2023-03-01T18:50:43;7.20;99.90
12632;DHT22;6381;45.748;12.106;2023-03-01T18:56:17;7.20;99.90
12632;DHT22;6381;45.748;12.106;2023-03-01T18:58:46;7.40;99.90
12632;DHT22;6381;45.748;12.106;2023-03-01T19:14:26;7.50;99.90
12632;DHT22;6381;45.748;12.106;2023-03-01T19:22:16;7.60;99.90
12632;DHT22;6381;45.748;12.106;2023-03-01T19:27:14;7.20;99.90
12632;DHT22;6381;45.748;12.106;2023-03-01T19:32:13;7.70;99.90
12632;DHT22;6381;45.748;12.106;2023-03-01T19:37:48;7.60;99.90
12632;DHT22;6381;45.748;12.106;2023-03-01T19:42:47;7.70;99.90
12632;DHT22;6381;45.748;12.106;2023-03-01T19:45:16;7.80;99.90
12632;DHT22;6381;45.748;12.106;2023-03-01T19:47:58;7.70;99.90
12632;DHT22;6381;45.748;12.106;2023-03-01T19:50:27;7.80;99.90
12632;DHT22;6381;45.748;12.106;2023-03-01T19:52:57;7.70;99.90
12632;DHT22;6381;45.748;12.106;2023-03-01T19:57:56;7.70;99.90
12632;DHT22;6381;45.748;12.106;2023-03-01T20:00:25;7.30;99.90
12632;DHT22;6381;45.748;12.106;2023-03-01T20:02:54;7.50;99.90
12632;DHT22;6381;45.748;12.106;2023-03-01T20:05:23;7.70;99.90
12632;DHT22;6381;45.748;12.106;2023-03-01T20:10:27;7.80;99.90
12632;DHT22;6381;45.748;12.106;2023-03-01T20:12:56;7.90;99.90
12632;DHT22;6381;45.748;12.106;2023-03-01T20:18:13;7.90;99.90
12632;DHT22;6381;45.748;12.106;2023-03-01T20:26:23;7.60;99.90
12632;DHT22;6381;45.748;12.106;2023-03-01T20:34:09;7.80;99.90
12632;DHT22;6381;45.748;12.106;2023-03-01T20:39:10;7.80;99.90
12632;DHT22;6381;45.748;12.106;2023-03-01T20:41:41;7.90;99.90
12632;DHT22;6381;45.748;12.106;2023-03-01T20:44:27;7.70;99.90
12632;DHT22;6381;45.748;12.106;2023-03-01T20:47:14;7.80;99.90
12632;DHT22;6381;45.748;12.106;2023-03-01T20:49:43;8.20;99.90
12632;DHT22;6381;45.748;12.106;2023-03-01T20:52:13;8.10;99.90
12632;DHT22;6381;45.748;12.106;2023-03-01T20:54:41;7.90;99.90
12632;DHT22;6381;45.748;12.106;2023-03-01T20:57:12;7.80;99.90
12632;DHT22;6381;45.748;12.106;2023-03-01T20:59:41;7.70;99.90
12632;DHT22;6381;45.748;12.106;2023-03-01T21:02:28;8.10;99.90
12632;DHT22;6381;45.748;12.106;2023-03-01T21:07:26;7.80;99.90
12632;DHT22;6381;45.748;12.106;2023-03-01T21:12:26;7.90;99.90
12632;DHT22;6381;45.748;12.106;2023-03-01T21:14:55;8.00;99.90
12632;DHT22;6381;45.748;12.106;2023-03-01T21:17:24;7.90;99.90
12632;DHT22;6381;45.748;12.106;2023-03-01T21:19:53;7.90;99.90
12632;DHT22;6381;45.748;12.106;2023-03-01T21:22:22;8.20;99.90
12632;DHT22;6381;45.748;12.106;2023-03-01T21:27:41;9.00;99.90
12632;DHT22;6381;45.748;12.106;2023-03-01T21:30:46;7.60;99.90
12632;DHT22;6381;45.748;12.106;2023-03-01T21:33:15;7.90;99.90
12632;DHT22;6381;45.748;12.106;2023-03-01T21:36:03;8.10;99.90
12632;DHT22;6381;45.748;12.106;2023-03-01T21:38:34;8.00;99.90
12632;DHT22;6381;45.748;12.106;2023-03-01T21:41:04;8.20;99.90
12632;DHT22;6381;45.748;12.106;2023-03-01T21:43:35;8.20;99.90
12632;DHT22;6381;45.748;12.106;2023-03-01T21:46:07;8.20;99.90
12632;DHT22;6381;45.748;12.106;2023-03-01T21:48:37;8.10;99.90
12632;DHT22;6381;45.748;12.106;2023-03-01T21:51:26;8.10;99.90
12632;DHT22;6381;45.748;12.106;2023-03-01T21:53:58;8.20;99.90
12632;DHT22;6381;45.748;12.106;2023-03-01T21:56:46;8.30;99.90
12632;DHT22;6381;45.748;12.106;2023-03-01T21:59:18;8.10;99.90
12632;DHT22;6381;45.748;12.106;2023-03-01T22:01:48;8.20;99.90
12632;DHT22;6381;45.748;12.106;2023-03-01T22:04:17;8.40;99.90
12632;DHT22;6381;45.748;12.106;2023-03-01T22:09:22;7.90;99.90
12632;DHT22;6381;45.748;12.106;2023-03-01T22:11:52;8.30;99.90
12632;DHT22;6381;45.748;12.106;2023-03-01T22:17:45;8.30;99.90
12632;DHT22;6381;45.748;12.106;2023-03-01T22:20:15;8.40;99.90
12632;DHT22;6381;45.748;12.106;2023-03-01T22:22:44;8.40;99.90
12632;DHT22;6381;45.748;12.106;2023-03-01T22:25:13;8.50;99.90
12632;DHT22;6381;45.748;12.106;2023-03-01T22:30:15;8.60;99.90
12632;DHT22;6381;45.748;12.106;2023-03-01T22:35:13;8.50;99.90
12632;DHT22;6381;45.748;12.106;2023-03-01T22:37:43;8.50;99.90
12632;DHT22;6381;45.748;12.106;2023-03-01T22:40:12;8.40;99.90
12632;DHT22;6381;45.748;12.106;2023-03-01T22:42:41;8.30;99.90
12632;DHT22;6381;45.748;12.106;2023-03-01T22:48:17;8.60;99.90
12632;DHT22;6381;45.748;12.106;2023-03-01T22:50:47;8.40;99.90
12632;DHT22;6381;45.748;12.106;2023-03-01T22:55:45;8.40;99.90
12632;DHT22;6381;45.748;12.106;2023-03-01T22:58:33;8.30;99.90
12632;DHT22;6381;45.748;12.106;2023-03-01T23:04:11;8.40;99.90
12632;DHT22;6381;45.748;12.106;2023-03-01T23:06:40;8.40;99.90
12632;DHT22;6381;45.748;12.106;2023-03-01T23:09:20;8.40;99.90
12632;DHT22;6381;45.748;12.106;2023-03-01T23:16:49;8.30;99.90
12632;DHT22;6381;45.748;12.106;2023-03-01T23:19:20;8.40;99.90
12632;DHT22;6381;45.748;12.106;2023-03-01T23:21:49;8.30;99.90
12632;DHT22;6381;45.748;12.106;2023-03-01T23:24:22;8.30;99.90
12632;DHT22;6381;45.748;12.106;2023-03-01T23:26:52;8.30;99.90
12632;DHT22;6381;45.748;12.106;2023-03-01T23:29:21;8.30;99.90
12632;DHT22;6381;45.748;12.106;2023-03-01T23:32:09;8.30;99.90
12632;DHT22;6381;45.748;12.106;2023-03-01T23:34:57;8.40;99.90
12632;DHT22;6381;45.748;12.106;2023-03-01T23:37:28;8.10;99.90
12632;DHT22;6381;45.748;12.106;2023-03-01T23:39:58;8.30;99.90
12632;DHT22;6381;45.748;12.106;2023-03-01T23:42:27;8.10;99.90
12632;DHT22;6381;45.748;12.106;2023-03-01T23:44:56;8.30;99.90
12632;DHT22;6381;45.748;12.106;2023-03-01T23:47:44;8.30;99.90
12632;DHT22;6381;45.748;12.106;2023-03-01T23:50:14;8.40;99.90
12632;DHT22;6381;45.748;12.106;2023-03-01T23:52:43;8.40;99.90
12632;DHT22;6381;45.748;12.106;2023-03-01T23:55:13;8.40;99.90
12632;DHT22;6381;45.748;12.106;2023-03-01T23:57:43;8.30;99.90
